Terminal Aerodrome Forecast
Issued by NWS

Home | Current Version | Previous Version | Text Only | Print | Product List | Glossary On
Versions: 1 2 3 4 5 6 7 8 9 10 11 12 13
000
FTUS42 TJSJ 191100
TAFJPS
TAF
TJPS 191131Z 1912/2012 04002KT P6SM FEW030 SCT050
     FM191600 17012KT P6SM VCSH SCT030 SCT050
     FM192300 05006KT P6SM FEW030 FEW060
      AMD NOT SKED TIL 200300=

USA.gov is the U.S. government's official web portal to all federal, state and local government web resources and services.